sensor_id;sensor_type;location;lat;lon;timestamp;temperature;humidity
14682;DHT22;7429;52.498;13.480;2022-12-20T00:01:38;3.80;99.90
14682;DHT22;7429;52.498;13.480;2022-12-20T00:04:43;3.80;99.90
14682;DHT22;7429;52.498;13.480;2022-12-20T00:07:46;3.80;99.90
14682;DHT22;7429;52.498;13.480;2022-12-20T00:10:50;3.80;99.90
14682;DHT22;7429;52.498;13.480;2022-12-20T00:13:54;3.90;99.90
14682;DHT22;7429;52.498;13.480;2022-12-20T00:16:57;3.90;99.90
14682;DHT22;7429;52.498;13.480;2022-12-20T00:20:03;4.00;99.90
14682;DHT22;7429;52.498;13.480;2022-12-20T00:23:07;4.00;99.90
14682;DHT22;7429;52.498;13.480;2022-12-20T00:26:13;3.90;99.90
14682;DHT22;7429;52.498;13.480;2022-12-20T00:29:18;4.00;99.90
14682;DHT22;7429;52.498;13.480;2022-12-20T00:32:21;4.00;99.90
14682;DHT22;7429;52.498;13.480;2022-12-20T00:35:27;4.00;99.90
14682;DHT22;7429;52.498;13.480;2022-12-20T00:38:32;4.00;99.90
14682;DHT22;7429;52.498;13.480;2022-12-20T00:41:37;4.00;99.90
14682;DHT22;7429;52.498;13.480;2022-12-20T00:44:40;4.00;99.90
14682;DHT22;7429;52.498;13.480;2022-12-20T00:47:44;4.10;99.90
14682;DHT22;7429;52.498;13.480;2022-12-20T00:50:49;4.10;99.90
14682;DHT22;7429;52.498;13.480;2022-12-20T00:53:54;4.20;99.90
14682;DHT22;7429;52.498;13.480;2022-12-20T00:56:58;4.10;99.90
14682;DHT22;7429;52.498;13.480;2022-12-20T01:00:03;4.10;99.90
14682;DHT22;7429;52.498;13.480;2022-12-20T01:03:11;4.10;99.90
14682;DHT22;7429;52.498;13.480;2022-12-20T01:06:17;4.10;99.90
14682;DHT22;7429;52.498;13.480;2022-12-20T01:09:22;4.20;99.90
14682;DHT22;7429;52.498;13.480;2022-12-20T01:12:25;4.20;99.90
14682;DHT22;7429;52.498;13.480;2022-12-20T01:15:29;4.20;99.90
14682;DHT22;7429;52.498;13.480;2022-12-20T01:18:33;4.20;99.90
14682;DHT22;7429;52.498;13.480;2022-12-20T01:21:38;4.10;99.90
14682;DHT22;7429;52.498;13.480;2022-12-20T01:24:46;4.10;99.90
14682;DHT22;7429;52.498;13.480;2022-12-20T01:27:49;4.10;99.90
14682;DHT22;7429;52.498;13.480;2022-12-20T01:30:55;4.10;99.90
14682;DHT22;7429;52.498;13.480;2022-12-20T01:34:00;4.10;99.90
14682;DHT22;7429;52.498;13.480;2022-12-20T01:37:05;4.10;99.90
14682;DHT22;7429;52.498;13.480;2022-12-20T01:40:09;4.20;99.90
14682;DHT22;7429;52.498;13.480;2022-12-20T01:43:14;4.20;99.90
14682;DHT22;7429;52.498;13.480;2022-12-20T01:46:22;4.20;99.90
14682;DHT22;7429;52.498;13.480;2022-12-20T01:49:29;4.20;99.90
14682;DHT22;7429;52.498;13.480;2022-12-20T01:52:38;4.20;99.90
14682;DHT22;7429;52.498;13.480;2022-12-20T01:55:43;4.20;99.90
14682;DHT22;7429;52.498;13.480;2022-12-20T01:58:50;4.10;99.90
14682;DHT22;7429;52.498;13.480;2022-12-20T02:01:57;4.10;99.90
14682;DHT22;7429;52.498;13.480;2022-12-20T02:05:02;4.20;99.90
14682;DHT22;7429;52.498;13.480;2022-12-20T02:08:09;4.20;99.90
14682;DHT22;7429;52.498;13.480;2022-12-20T02:15:05;4.20;99.90
14682;DHT22;7429;52.498;13.480;2022-12-20T02:18:21;4.20;99.90
14682;DHT22;7429;52.498;13.480;2022-12-20T02:21:29;4.20;99.90
14682;DHT22;7429;52.498;13.480;2022-12-20T02:24:57;4.20;99.90
14682;DHT22;7429;52.498;13.480;2022-12-20T02:28:20;4.20;99.90
14682;DHT22;7429;52.498;13.480;2022-12-20T02:31:39;4.30;99.90
14682;DHT22;7429;52.498;13.480;2022-12-20T02:34:46;4.30;99.90
14682;DHT22;7429;52.498;13.480;2022-12-20T02:37:51;4.30;99.90
14682;DHT22;7429;52.498;13.480;2022-12-20T02:40:58;4.30;99.90
14682;DHT22;7429;52.498;13.480;2022-12-20T02:44:07;4.30;99.90
14682;DHT22;7429;52.498;13.480;2022-12-20T02:47:34;4.40;99.90
14682;DHT22;7429;52.498;13.480;2022-12-20T02:50:42;4.40;99.90
14682;DHT22;7429;52.498;13.480;2022-12-20T02:53:48;4.40;99.90
14682;DHT22;7429;52.498;13.480;2022-12-20T02:56:55;4.40;99.90
14682;DHT22;7429;52.498;13.480;2022-12-20T03:00:04;4.50;99.90
14682;DHT22;7429;52.498;13.480;2022-12-20T03:03:11;4.50;99.90
14682;DHT22;7429;52.498;13.480;2022-12-20T03:06:26;4.50;99.90
14682;DHT22;7429;52.498;13.480;2022-12-20T03:09:36;4.60;99.90
14682;DHT22;7429;52.498;13.480;2022-12-20T03:12:41;4.60;99.90
14682;DHT22;7429;52.498;13.480;2022-12-20T03:15:44;4.70;99.90
14682;DHT22;7429;52.498;13.480;2022-12-20T03:18:49;4.60;99.90
14682;DHT22;7429;52.498;13.480;2022-12-20T03:21:52;4.60;99.90
14682;DHT22;7429;52.498;13.480;2022-12-20T03:24:55;4.60;99.90
14682;DHT22;7429;52.498;13.480;2022-12-20T03:28:00;4.70;99.90
14682;DHT22;7429;52.498;13.480;2022-12-20T03:31:03;4.70;99.90
14682;DHT22;7429;52.498;13.480;2022-12-20T03:34:18;4.70;99.90
14682;DHT22;7429;52.498;13.480;2022-12-20T03:37:22;4.80;99.90
14682;DHT22;7429;52.498;13.480;2022-12-20T03:40:25;4.70;99.90
14682;DHT22;7429;52.498;13.480;2022-12-20T03:43:29;4.80;99.90
14682;DHT22;7429;52.498;13.480;2022-12-20T03:46:32;4.80;99.90
14682;DHT22;7429;52.498;13.480;2022-12-20T03:49:38;4.80;99.90
14682;DHT22;7429;52.498;13.480;2022-12-20T03:52:41;4.90;99.90
14682;DHT22;7429;52.498;13.480;2022-12-20T03:55:46;4.90;99.90
14682;DHT22;7429;52.498;13.480;2022-12-20T03:58:50;4.80;99.90
14682;DHT22;7429;52.498;13.480;2022-12-20T04:01:53;4.90;99.90
14682;DHT22;7429;52.498;13.480;2022-12-20T04:04:58;4.80;99.90
14682;DHT22;7429;52.498;13.480;2022-12-20T04:08:02;4.90;99.90
14682;DHT22;7429;52.498;13.480;2022-12-20T04:11:06;4.90;99.90
14682;DHT22;7429;52.498;13.480;2022-12-20T04:14:23;4.90;99.90
14682;DHT22;7429;52.498;13.480;2022-12-20T04:17:27;4.90;99.90
14682;DHT22;7429;52.498;13.480;2022-12-20T04:20:32;4.80;99.90
14682;DHT22;7429;52.498;13.480;2022-12-20T04:23:46;4.80;99.90
14682;DHT22;7429;52.498;13.480;2022-12-20T04:26:50;4.80;99.90
14682;DHT22;7429;52.498;13.480;2022-12-20T04:29:53;4.80;99.90
14682;DHT22;7429;52.498;13.480;2022-12-20T04:32:57;4.80;99.90
14682;DHT22;7429;52.498;13.480;2022-12-20T04:36:03;4.80;99.90
14682;DHT22;7429;52.498;13.480;2022-12-20T04:39:08;4.70;99.90
14682;DHT22;7429;52.498;13.480;2022-12-20T04:42:37;4.70;99.90
14682;DHT22;7429;52.498;13.480;2022-12-20T04:45:40;4.70;99.90
14682;DHT22;7429;52.498;13.480;2022-12-20T04:48:43;4.70;99.90
14682;DHT22;7429;52.498;13.480;2022-12-20T04:52:00;4.60;99.90
14682;DHT22;7429;52.498;13.480;2022-12-20T04:55:19;4.50;99.90
14682;DHT22;7429;52.498;13.480;2022-12-20T04:58:22;4.40;99.90
14682;DHT22;7429;52.498;13.480;2022-12-20T05:01:25;4.40;99.90
14682;DHT22;7429;52.498;13.480;2022-12-20T05:04:29;4.50;99.90
14682;DHT22;7429;52.498;13.480;2022-12-20T05:07:39;4.50;99.90
14682;DHT22;7429;52.498;13.480;2022-12-20T05:10:44;4.40;99.90
14682;DHT22;7429;52.498;13.480;2022-12-20T05:13:47;4.40;99.90
14682;DHT22;7429;52.498;13.480;2022-12-20T05:16:53;4.40;99.90
14682;DHT22;7429;52.498;13.480;2022-12-20T05:19:56;4.40;99.90
14682;DHT22;7429;52.498;13.480;2022-12-20T05:23:01;4.30;99.90
14682;DHT22;7429;52.498;13.480;2022-12-20T05:26:25;4.30;99.90
14682;DHT22;7429;52.498;13.480;2022-12-20T05:29:31;4.40;99.90
14682;DHT22;7429;52.498;13.480;2022-12-20T05:32:34;4.40;99.90
14682;DHT22;7429;52.498;13.480;2022-12-20T05:35:37;4.40;99.90
14682;DHT22;7429;52.498;13.480;2022-12-20T05:38:46;4.40;99.90
14682;DHT22;7429;52.498;13.480;2022-12-20T05:41:52;4.40;99.90
14682;DHT22;7429;52.498;13.480;2022-12-20T05:44:58;4.40;99.90
14682;DHT22;7429;52.498;13.480;2022-12-20T05:48:05;4.40;99.90
14682;DHT22;7429;52.498;13.480;2022-12-20T05:51:12;4.40;99.90
14682;DHT22;7429;52.498;13.480;2022-12-20T05:54:28;4.50;99.90
14682;DHT22;7429;52.498;13.480;2022-12-20T05:57:41;4.50;99.90
14682;DHT22;7429;52.498;13.480;2022-12-20T06:00:50;4.60;99.90
14682;DHT22;7429;52.498;13.480;2022-12-20T06:03:54;4.60;99.90
14682;DHT22;7429;52.498;13.480;2022-12-20T06:06:58;4.60;99.90
14682;DHT22;7429;52.498;13.480;2022-12-20T06:10:07;4.60;99.90
14682;DHT22;7429;52.498;13.480;2022-12-20T06:13:24;4.70;99.90
14682;DHT22;7429;52.498;13.480;2022-12-20T06:16:35;4.70;99.90
14682;DHT22;7429;52.498;13.480;2022-12-20T06:19:44;4.80;99.90
14682;DHT22;7429;52.498;13.480;2022-12-20T06:23:04;4.80;99.90
14682;DHT22;7429;52.498;13.480;2022-12-20T06:26:19;4.90;99.90
14682;DHT22;7429;52.498;13.480;2022-12-20T06:29:28;4.90;99.90
14682;DHT22;7429;52.498;13.480;2022-12-20T06:32:40;5.00;99.90
14682;DHT22;7429;52.498;13.480;2022-12-20T06:35:44;5.00;99.90
14682;DHT22;7429;52.498;13.480;2022-12-20T06:38:47;5.00;99.90
14682;DHT22;7429;52.498;13.480;2022-12-20T06:41:51;5.00;99.90
14682;DHT22;7429;52.498;13.480;2022-12-20T06:44:55;5.00;99.90
14682;DHT22;7429;52.498;13.480;2022-12-20T06:47:58;5.10;99.90
14682;DHT22;7429;52.498;13.480;2022-12-20T06:51:03;5.10;99.90
14682;DHT22;7429;52.498;13.480;2022-12-20T06:54:06;5.20;99.90
14682;DHT22;7429;52.498;13.480;2022-12-20T06:57:11;5.10;99.90
14682;DHT22;7429;52.498;13.480;2022-12-20T07:00:16;5.10;99.90
14682;DHT22;7429;52.498;13.480;2022-12-20T07:03:20;5.20;99.90
14682;DHT22;7429;52.498;13.480;2022-12-20T07:06:23;5.20;99.90
14682;DHT22;7429;52.498;13.480;2022-12-20T07:09:27;5.20;99.90
14682;DHT22;7429;52.498;13.480;2022-12-20T07:12:32;5.20;99.90
14682;DHT22;7429;52.498;13.480;2022-12-20T07:15:35;5.20;99.90
14682;DHT22;7429;52.498;13.480;2022-12-20T07:18:39;5.20;99.90
14682;DHT22;7429;52.498;13.480;2022-12-20T07:21:42;5.30;99.90
14682;DHT22;7429;52.498;13.480;2022-12-20T07:24:45;5.30;99.90
14682;DHT22;7429;52.498;13.480;2022-12-20T07:27:50;5.30;99.90
14682;DHT22;7429;52.498;13.480;2022-12-20T07:30:53;5.30;99.90
14682;DHT22;7429;52.498;13.480;2022-12-20T07:33:57;5.30;99.90
14682;DHT22;7429;52.498;13.480;2022-12-20T07:37:00;5.40;99.90
14682;DHT22;7429;52.498;13.480;2022-12-20T07:40:04;5.40;99.90
14682;DHT22;7429;52.498;13.480;2022-12-20T07:43:10;5.40;99.90
14682;DHT22;7429;52.498;13.480;2022-12-20T07:46:14;5.40;99.90
14682;DHT22;7429;52.498;13.480;2022-12-20T07:49:17;5.40;99.90
14682;DHT22;7429;52.498;13.480;2022-12-20T07:52:22;5.50;99.90
14682;DHT22;7429;52.498;13.480;2022-12-20T07:55:28;5.50;99.90
14682;DHT22;7429;52.498;13.480;2022-12-20T07:58:34;5.50;99.90
14682;DHT22;7429;52.498;13.480;2022-12-20T08:01:40;5.60;99.90
14682;DHT22;7429;52.498;13.480;2022-12-20T08:04:46;5.60;99.90
14682;DHT22;7429;52.498;13.480;2022-12-20T08:07:50;5.60;99.90
14682;DHT22;7429;52.498;13.480;2022-12-20T08:11:00;5.60;99.90
14682;DHT22;7429;52.498;13.480;2022-12-20T08:14:06;5.50;99.90
14682;DHT22;7429;52.498;13.480;2022-12-20T08:17:09;5.50;99.90
14682;DHT22;7429;52.498;13.480;2022-12-20T08:20:13;5.50;99.90
14682;DHT22;7429;52.498;13.480;2022-12-20T08:23:16;5.60;99.90
14682;DHT22;7429;52.498;13.480;2022-12-20T08:26:20;5.60;99.90
14682;DHT22;7429;52.498;13.480;2022-12-20T08:29:24;5.60;99.90
14682;DHT22;7429;52.498;13.480;2022-12-20T08:32:28;5.60;99.90
14682;DHT22;7429;52.498;13.480;2022-12-20T08:35:31;5.60;99.90
14682;DHT22;7429;52.498;13.480;2022-12-20T08:38:34;5.60;99.90
14682;DHT22;7429;52.498;13.480;2022-12-20T08:41:37;5.70;99.90
14682;DHT22;7429;52.498;13.480;2022-12-20T08:44:41;5.70;99.90
14682;DHT22;7429;52.498;13.480;2022-12-20T08:47:45;5.70;99.90
14682;DHT22;7429;52.498;13.480;2022-12-20T08:50:53;5.70;99.90
14682;DHT22;7429;52.498;13.480;2022-12-20T08:53:57;5.70;99.90
14682;DHT22;7429;52.498;13.480;2022-12-20T08:57:01;5.80;99.90
14682;DHT22;7429;52.498;13.480;2022-12-20T09:00:06;5.80;99.90
14682;DHT22;7429;52.498;13.480;2022-12-20T09:03:10;5.80;99.90
14682;DHT22;7429;52.498;13.480;2022-12-20T09:06:17;5.80;99.90
14682;DHT22;7429;52.498;13.480;2022-12-20T09:09:21;5.90;99.90
14682;DHT22;7429;52.498;13.480;2022-12-20T09:12:24;5.90;99.90
14682;DHT22;7429;52.498;13.480;2022-12-20T09:15:28;5.90;99.90
14682;DHT22;7429;52.498;13.480;2022-12-20T09:18:33;6.00;99.90
14682;DHT22;7429;52.498;13.480;2022-12-20T09:21:36;6.10;99.90
14682;DHT22;7429;52.498;13.480;2022-12-20T09:24:39;6.10;99.90
14682;DHT22;7429;52.498;13.480;2022-12-20T09:27:43;6.10;99.90
14682;DHT22;7429;52.498;13.480;2022-12-20T09:30:48;6.20;99.90
14682;DHT22;7429;52.498;13.480;2022-12-20T09:33:53;6.20;99.90
14682;DHT22;7429;52.498;13.480;2022-12-20T09:36:56;6.30;99.90
14682;DHT22;7429;52.498;13.480;2022-12-20T09:40:00;6.30;99.90
14682;DHT22;7429;52.498;13.480;2022-12-20T09:43:04;6.40;99.90
14682;DHT22;7429;52.498;13.480;2022-12-20T09:46:13;6.50;99.90
14682;DHT22;7429;52.498;13.480;2022-12-20T09:49:18;6.60;99.90
14682;DHT22;7429;52.498;13.480;2022-12-20T09:52:32;6.70;99.90
14682;DHT22;7429;52.498;13.480;2022-12-20T09:55:49;6.70;99.90
14682;DHT22;7429;52.498;13.480;2022-12-20T09:58:59;6.80;99.90
14682;DHT22;7429;52.498;13.480;2022-12-20T10:02:08;6.80;99.90
14682;DHT22;7429;52.498;13.480;2022-12-20T10:05:37;6.80;99.90
14682;DHT22;7429;52.498;13.480;2022-12-20T10:08:45;6.90;99.90
14682;DHT22;7429;52.498;13.480;2022-12-20T10:12:00;7.00;99.90
14682;DHT22;7429;52.498;13.480;2022-12-20T10:15:25;7.00;99.90
14682;DHT22;7429;52.498;13.480;2022-12-20T10:18:47;7.00;99.90
14682;DHT22;7429;52.498;13.480;2022-12-20T10:22:04;7.10;99.90
14682;DHT22;7429;52.498;13.480;2022-12-20T10:25:16;7.10;99.90
14682;DHT22;7429;52.498;13.480;2022-12-20T10:28:26;7.20;99.90
14682;DHT22;7429;52.498;13.480;2022-12-20T10:31:33;7.20;99.90
14682;DHT22;7429;52.498;13.480;2022-12-20T10:34:38;7.20;99.90
14682;DHT22;7429;52.498;13.480;2022-12-20T10:37:57;7.20;99.90
14682;DHT22;7429;52.498;13.480;2022-12-20T10:41:14;7.30;99.90
14682;DHT22;7429;52.498;13.480;2022-12-20T10:44:25;7.30;99.90
14682;DHT22;7429;52.498;13.480;2022-12-20T10:47:37;7.30;99.90
14682;DHT22;7429;52.498;13.480;2022-12-20T10:50:54;7.40;99.90
14682;DHT22;7429;52.498;13.480;2022-12-20T10:54:00;7.50;99.90
14682;DHT22;7429;52.498;13.480;2022-12-20T10:57:15;7.60;99.90
14682;DHT22;7429;52.498;13.480;2022-12-20T11:00:27;7.70;99.90
14682;DHT22;7429;52.498;13.480;2022-12-20T11:03:31;7.80;99.90
14682;DHT22;7429;52.498;13.480;2022-12-20T11:06:44;7.90;99.90
14682;DHT22;7429;52.498;13.480;2022-12-20T11:09:52;7.90;99.90
14682;DHT22;7429;52.498;13.480;2022-12-20T11:12:59;8.00;99.90
14682;DHT22;7429;52.498;13.480;2022-12-20T11:16:03;8.10;99.90
14682;DHT22;7429;52.498;13.480;2022-12-20T11:19:26;8.10;99.90
14682;DHT22;7429;52.498;13.480;2022-12-20T11:22:44;8.10;99.90
14682;DHT22;7429;52.498;13.480;2022-12-20T11:26:03;8.00;99.90
14682;DHT22;7429;52.498;13.480;2022-12-20T11:29:29;8.00;99.90
14682;DHT22;7429;52.498;13.480;2022-12-20T11:32:53;8.00;99.90
14682;DHT22;7429;52.498;13.480;2022-12-20T11:36:12;8.00;99.90
14682;DHT22;7429;52.498;13.480;2022-12-20T11:39:28;8.10;99.90
14682;DHT22;7429;52.498;13.480;2022-12-20T11:42:48;8.00;99.90
14682;DHT22;7429;52.498;13.480;2022-12-20T11:46:12;8.10;99.90
14682;DHT22;7429;52.498;13.480;2022-12-20T11:49:42;8.10;99.90
14682;DHT22;7429;52.498;13.480;2022-12-20T11:52:55;8.20;99.90
14682;DHT22;7429;52.498;13.480;2022-12-20T11:56:05;8.20;99.90
14682;DHT22;7429;52.498;13.480;2022-12-20T11:59:16;8.20;99.90
14682;DHT22;7429;52.498;13.480;2022-12-20T12:02:25;8.20;99.90
14682;DHT22;7429;52.498;13.480;2022-12-20T12:05:39;8.20;99.90
14682;DHT22;7429;52.498;13.480;2022-12-20T12:08:49;8.20;99.90
14682;DHT22;7429;52.498;13.480;2022-12-20T12:12:00;8.20;99.90
14682;DHT22;7429;52.498;13.480;2022-12-20T12:15:26;8.20;99.90
14682;DHT22;7429;52.498;13.480;2022-12-20T12:18:34;8.20;99.90
14682;DHT22;7429;52.498;13.480;2022-12-20T12:21:39;8.30;99.90
14682;DHT22;7429;52.498;13.480;2022-12-20T12:24:50;8.30;99.90
14682;DHT22;7429;52.498;13.480;2022-12-20T12:27:57;8.30;99.90
14682;DHT22;7429;52.498;13.480;2022-12-20T12:31:05;8.30;99.90
14682;DHT22;7429;52.498;13.480;2022-12-20T12:34:22;8.30;99.90
14682;DHT22;7429;52.498;13.480;2022-12-20T12:37:45;8.30;99.90
14682;DHT22;7429;52.498;13.480;2022-12-20T12:41:21;8.40;99.90
14682;DHT22;7429;52.498;13.480;2022-12-20T12:44:44;8.40;99.90
14682;DHT22;7429;52.498;13.480;2022-12-20T12:47:52;8.30;99.90
14682;DHT22;7429;52.498;13.480;2022-12-20T12:50:57;8.30;99.90
14682;DHT22;7429;52.498;13.480;2022-12-20T12:54:15;8.40;99.90
14682;DHT22;7429;52.498;13.480;2022-12-20T12:57:20;8.40;99.90
14682;DHT22;7429;52.498;13.480;2022-12-20T13:00:50;8.40;99.90
14682;DHT22;7429;52.498;13.480;2022-12-20T13:04:21;8.30;99.90
14682;DHT22;7429;52.498;13.480;2022-12-20T13:07:28;8.20;99.90
14682;DHT22;7429;52.498;13.480;2022-12-20T13:11:10;8.30;99.90
14682;DHT22;7429;52.498;13.480;2022-12-20T13:14:48;8.30;99.90
14682;DHT22;7429;52.498;13.480;2022-12-20T13:17:56;8.30;99.90
14682;DHT22;7429;52.498;13.480;2022-12-20T13:24:52;8.30;99.90
14682;DHT22;7429;52.498;13.480;2022-12-20T13:31:46;8.30;99.90
14682;DHT22;7429;52.498;13.480;2022-12-20T13:34:56;8.20;99.90
14682;DHT22;7429;52.498;13.480;2022-12-20T13:38:01;8.10;99.90
14682;DHT22;7429;52.498;13.480;2022-12-20T13:41:16;8.10;99.90
14682;DHT22;7429;52.498;13.480;2022-12-20T13:44:40;8.10;99.90
14682;DHT22;7429;52.498;13.480;2022-12-20T13:47:48;8.00;99.90
14682;DHT22;7429;52.498;13.480;2022-12-20T13:50:57;8.00;99.90
14682;DHT22;7429;52.498;13.480;2022-12-20T13:54:02;8.00;99.90
14682;DHT22;7429;52.498;13.480;2022-12-20T13:57:07;7.90;99.90
14682;DHT22;7429;52.498;13.480;2022-12-20T14:00:16;7.90;99.90
14682;DHT22;7429;52.498;13.480;2022-12-20T14:03:23;7.90;99.90
14682;DHT22;7429;52.498;13.480;2022-12-20T14:06:29;7.80;99.90
14682;DHT22;7429;52.498;13.480;2022-12-20T14:09:35;7.80;99.90
14682;DHT22;7429;52.498;13.480;2022-12-20T14:12:43;7.80;99.90
14682;DHT22;7429;52.498;13.480;2022-12-20T14:15:47;7.80;99.90
14682;DHT22;7429;52.498;13.480;2022-12-20T14:19:00;7.70;99.90
14682;DHT22;7429;52.498;13.480;2022-12-20T14:22:05;7.80;99.90
14682;DHT22;7429;52.498;13.480;2022-12-20T14:25:08;7.80;99.90
14682;DHT22;7429;52.498;13.480;2022-12-20T14:28:20;7.70;99.90
14682;DHT22;7429;52.498;13.480;2022-12-20T14:31:36;7.70;99.90
14682;DHT22;7429;52.498;13.480;2022-12-20T14:34:42;7.70;99.90
14682;DHT22;7429;52.498;13.480;2022-12-20T14:37:54;7.70;99.90
14682;DHT22;7429;52.498;13.480;2022-12-20T14:40:58;7.60;99.90
14682;DHT22;7429;52.498;13.480;2022-12-20T14:44:10;7.60;99.90
14682;DHT22;7429;52.498;13.480;2022-12-20T14:47:18;7.60;99.90
14682;DHT22;7429;52.498;13.480;2022-12-20T14:50:28;7.60;99.90
14682;DHT22;7429;52.498;13.480;2022-12-20T14:53:34;7.60;99.90
14682;DHT22;7429;52.498;13.480;2022-12-20T14:56:44;7.50;99.90
14682;DHT22;7429;52.498;13.480;2022-12-20T14:59:58;7.50;99.90
14682;DHT22;7429;52.498;13.480;2022-12-20T15:03:15;7.40;99.90
14682;DHT22;7429;52.498;13.480;2022-12-20T15:06:31;7.40;99.90
14682;DHT22;7429;52.498;13.480;2022-12-20T15:09:39;7.40;99.90
14682;DHT22;7429;52.498;13.480;2022-12-20T15:12:42;7.30;99.90
14682;DHT22;7429;52.498;13.480;2022-12-20T15:15:47;7.30;99.90
14682;DHT22;7429;52.498;13.480;2022-12-20T15:18:53;7.30;99.90
14682;DHT22;7429;52.498;13.480;2022-12-20T15:21:57;7.20;99.90
14682;DHT22;7429;52.498;13.480;2022-12-20T15:25:07;7.20;99.90
14682;DHT22;7429;52.498;13.480;2022-12-20T15:28:15;7.20;99.90
14682;DHT22;7429;52.498;13.480;2022-12-20T15:31:21;7.20;99.90
14682;DHT22;7429;52.498;13.480;2022-12-20T15:34:35;7.20;99.90
14682;DHT22;7429;52.498;13.480;2022-12-20T15:37:39;7.10;99.90
14682;DHT22;7429;52.498;13.480;2022-12-20T15:40:45;7.10;99.90
14682;DHT22;7429;52.498;13.480;2022-12-20T15:43:52;7.00;99.90
14682;DHT22;7429;52.498;13.480;2022-12-20T15:47:00;7.00;99.90
14682;DHT22;7429;52.498;13.480;2022-12-20T15:50:04;7.00;99.90
14682;DHT22;7429;52.498;13.480;2022-12-20T15:53:11;6.90;99.90
14682;DHT22;7429;52.498;13.480;2022-12-20T15:56:19;6.90;99.90
14682;DHT22;7429;52.498;13.480;2022-12-20T15:59:24;6.80;99.90
14682;DHT22;7429;52.498;13.480;2022-12-20T16:02:48;6.90;99.90
14682;DHT22;7429;52.498;13.480;2022-12-20T16:05:52;6.80;99.90
14682;DHT22;7429;52.498;13.480;2022-12-20T16:08:57;6.80;99.90
14682;DHT22;7429;52.498;13.480;2022-12-20T16:12:02;6.80;99.90
14682;DHT22;7429;52.498;13.480;2022-12-20T16:15:13;6.70;99.90
14682;DHT22;7429;52.498;13.480;2022-12-20T16:18:22;6.70;99.90
14682;DHT22;7429;52.498;13.480;2022-12-20T16:21:30;6.70;99.90
14682;DHT22;7429;52.498;13.480;2022-12-20T16:24:34;6.70;99.90
14682;DHT22;7429;52.498;13.480;2022-12-20T16:27:39;6.70;99.90
14682;DHT22;7429;52.498;13.480;2022-12-20T16:30:42;6.60;99.90
14682;DHT22;7429;52.498;13.480;2022-12-20T16:33:54;6.60;99.90
14682;DHT22;7429;52.498;13.480;2022-12-20T16:36:57;6.60;99.90
14682;DHT22;7429;52.498;13.480;2022-12-20T16:40:01;6.60;99.90
14682;DHT22;7429;52.498;13.480;2022-12-20T16:43:13;6.50;99.90
14682;DHT22;7429;52.498;13.480;2022-12-20T16:46:20;6.50;99.90
14682;DHT22;7429;52.498;13.480;2022-12-20T16:49:24;6.40;99.90
14682;DHT22;7429;52.498;13.480;2022-12-20T16:52:30;6.40;99.90
14682;DHT22;7429;52.498;13.480;2022-12-20T16:55:37;6.40;99.90
14682;DHT22;7429;52.498;13.480;2022-12-20T16:58:45;6.30;99.90
14682;DHT22;7429;52.498;13.480;2022-12-20T17:02:20;6.30;99.90
14682;DHT22;7429;52.498;13.480;2022-12-20T17:05:28;6.20;99.90
14682;DHT22;7429;52.498;13.480;2022-12-20T17:08:32;6.20;99.90
14682;DHT22;7429;52.498;13.480;2022-12-20T17:11:53;6.10;99.90
14682;DHT22;7429;52.498;13.480;2022-12-20T17:14:58;6.00;99.90
14682;DHT22;7429;52.498;13.480;2022-12-20T17:18:01;6.00;99.90
14682;DHT22;7429;52.498;13.480;2022-12-20T17:21:17;5.90;99.90
14682;DHT22;7429;52.498;13.480;2022-12-20T17:24:22;5.90;99.90
14682;DHT22;7429;52.498;13.480;2022-12-20T17:27:26;5.90;99.90
14682;DHT22;7429;52.498;13.480;2022-12-20T17:30:30;5.90;99.90
14682;DHT22;7429;52.498;13.480;2022-12-20T17:33:34;5.80;99.90
14682;DHT22;7429;52.498;13.480;2022-12-20T17:36:37;5.80;99.90
14682;DHT22;7429;52.498;13.480;2022-12-20T17:39:40;5.80;99.90
14682;DHT22;7429;52.498;13.480;2022-12-20T17:42:43;5.80;99.90
14682;DHT22;7429;52.498;13.480;2022-12-20T17:45:47;5.80;99.90
14682;DHT22;7429;52.498;13.480;2022-12-20T17:48:51;5.80;99.90
14682;DHT22;7429;52.498;13.480;2022-12-20T17:51:54;5.80;99.90
14682;DHT22;7429;52.498;13.480;2022-12-20T17:54:57;5.80;99.90
14682;DHT22;7429;52.498;13.480;2022-12-20T17:58:00;5.70;99.90
14682;DHT22;7429;52.498;13.480;2022-12-20T18:01:05;5.80;99.90
14682;DHT22;7429;52.498;13.480;2022-12-20T18:04:10;5.80;99.90
14682;DHT22;7429;52.498;13.480;2022-12-20T18:07:15;5.80;99.90
14682;DHT22;7429;52.498;13.480;2022-12-20T18:10:18;5.80;99.90
14682;DHT22;7429;52.498;13.480;2022-12-20T18:13:21;5.80;99.90
14682;DHT22;7429;52.498;13.480;2022-12-20T18:16:28;5.80;99.90
14682;DHT22;7429;52.498;13.480;2022-12-20T18:19:32;5.80;99.90
14682;DHT22;7429;52.498;13.480;2022-12-20T18:22:35;5.80;99.90
14682;DHT22;7429;52.498;13.480;2022-12-20T18:25:38;5.80;99.90
14682;DHT22;7429;52.498;13.480;2022-12-20T18:28:43;5.80;99.90
14682;DHT22;7429;52.498;13.480;2022-12-20T18:31:48;5.80;99.90
14682;DHT22;7429;52.498;13.480;2022-12-20T18:34:52;5.90;99.90
14682;DHT22;7429;52.498;13.480;2022-12-20T18:37:55;5.90;99.90
14682;DHT22;7429;52.498;13.480;2022-12-20T18:40:58;5.90;99.90
14682;DHT22;7429;52.498;13.480;2022-12-20T18:44:04;6.00;99.90
14682;DHT22;7429;52.498;13.480;2022-12-20T18:47:09;6.00;99.90
14682;DHT22;7429;52.498;13.480;2022-12-20T18:50:12;6.00;99.90
14682;DHT22;7429;52.498;13.480;2022-12-20T18:53:15;6.00;99.90
14682;DHT22;7429;52.498;13.480;2022-12-20T18:56:20;6.00;99.90
14682;DHT22;7429;52.498;13.480;2022-12-20T18:59:25;6.00;99.90
14682;DHT22;7429;52.498;13.480;2022-12-20T19:02:30;6.00;99.90
14682;DHT22;7429;52.498;13.480;2022-12-20T19:05:34;6.00;99.90
14682;DHT22;7429;52.498;13.480;2022-12-20T19:08:38;6.00;99.90
14682;DHT22;7429;52.498;13.480;2022-12-20T19:11:42;6.00;99.90
14682;DHT22;7429;52.498;13.480;2022-12-20T19:14:57;6.00;99.90
14682;DHT22;7429;52.498;13.480;2022-12-20T19:18:04;6.00;99.90
14682;DHT22;7429;52.498;13.480;2022-12-20T19:21:10;6.10;99.90
14682;DHT22;7429;52.498;13.480;2022-12-20T19:24:14;6.20;99.90
14682;DHT22;7429;52.498;13.480;2022-12-20T19:27:17;6.20;99.90
14682;DHT22;7429;52.498;13.480;2022-12-20T19:30:20;6.40;99.90
14682;DHT22;7429;52.498;13.480;2022-12-20T19:33:24;6.40;99.90
14682;DHT22;7429;52.498;13.480;2022-12-20T19:36:29;6.40;99.90
14682;DHT22;7429;52.498;13.480;2022-12-20T19:39:34;6.50;99.90
14682;DHT22;7429;52.498;13.480;2022-12-20T19:42:37;6.60;99.90
14682;DHT22;7429;52.498;13.480;2022-12-20T19:45:43;6.60;99.90
14682;DHT22;7429;52.498;13.480;2022-12-20T19:48:48;6.60;99.90
14682;DHT22;7429;52.498;13.480;2022-12-20T19:51:51;6.50;99.90
14682;DHT22;7429;52.498;13.480;2022-12-20T19:54:55;6.40;99.90
14682;DHT22;7429;52.498;13.480;2022-12-20T19:57:58;6.40;99.90
14682;DHT22;7429;52.498;13.480;2022-12-20T20:01:03;6.40;99.90
14682;DHT22;7429;52.498;13.480;2022-12-20T20:04:09;6.30;99.90
14682;DHT22;7429;52.498;13.480;2022-12-20T20:07:13;6.30;99.90
14682;DHT22;7429;52.498;13.480;2022-12-20T20:10:17;6.30;99.90
14682;DHT22;7429;52.498;13.480;2022-12-20T20:13:21;6.30;99.90
14682;DHT22;7429;52.498;13.480;2022-12-20T20:16:26;6.30;99.90